createdAt,value
2018-08-25T00:01:06.835Z,1.90
2018-08-25T00:03:35.048Z,1.30
2018-08-25T00:06:03.288Z,1.60
2018-08-25T00:08:31.516Z,1.60
2018-08-25T00:10:59.736Z,1.40
2018-08-25T00:13:27.962Z,1.80
2018-08-25T00:15:56.172Z,1.50
2018-08-25T00:18:24.393Z,1.82
2018-08-25T00:20:52.611Z,1.80
2018-08-25T00:23:20.864Z,1.70
2018-08-25T00:25:49.071Z,1.60
2018-08-25T00:28:17.332Z,1.60
2018-08-25T00:30:50.828Z,1.60
2018-08-25T00:33:19.060Z,1.50
2018-08-25T00:35:47.268Z,1.90
2018-08-25T00:38:15.508Z,1.70
2018-08-25T00:40:43.733Z,1.60
2018-08-25T00:43:11.977Z,1.70
2018-08-25T00:45:40.196Z,1.40
2018-08-25T00:48:08.456Z,1.57
2018-08-25T00:50:36.680Z,1.98
2018-08-25T00:53:04.912Z,1.85
2018-08-25T00:55:33.125Z,1.82
2018-08-25T00:58:01.351Z,1.90
2018-08-25T01:00:29.568Z,1.52
2018-08-25T01:02:57.788Z,1.62
2018-08-25T01:05:26.009Z,1.80
2018-08-25T01:07:54.292Z,1.77
2018-08-25T01:10:22.520Z,1.42
2018-08-25T01:12:50.756Z,1.47
2018-08-25T01:15:18.963Z,1.82
2018-08-25T01:17:47.196Z,1.70
2018-08-25T01:20:15.419Z,1.80
2018-08-25T01:22:43.638Z,1.70
2018-08-25T01:25:11.844Z,1.67
2018-08-25T01:27:40.067Z,2.00
2018-08-25T01:30:08.278Z,1.50
2018-08-25T01:32:36.504Z,1.60
2018-08-25T01:35:04.740Z,1.50
2018-08-25T01:37:32.968Z,2.00
2018-08-25T01:40:01.243Z,1.80
2018-08-25T01:42:29.453Z,1.82
2018-08-25T01:44:57.679Z,1.70
2018-08-25T01:47:25.896Z,1.80
2018-08-25T01:49:54.131Z,1.70
2018-08-25T01:52:22.325Z,1.90
2018-08-25T01:54:50.560Z,1.80
2018-08-25T01:57:18.765Z,1.80
2018-08-25T01:59:46.991Z,1.75
2018-08-25T02:02:15.196Z,1.70
2018-08-25T02:04:43.453Z,1.62
2018-08-25T02:07:11.677Z,1.82
2018-08-25T02:09:39.895Z,1.70
2018-08-25T02:12:08.129Z,1.82
2018-08-25T02:14:36.385Z,2.00
2018-08-25T02:17:04.656Z,1.87
2018-08-25T02:19:32.918Z,2.00
2018-08-25T02:22:01.140Z,2.10
2018-08-25T02:24:29.388Z,1.80
2018-08-25T02:26:57.611Z,2.00
2018-08-25T02:29:25.847Z,2.20
2018-08-25T02:31:54.113Z,1.77
2018-08-25T02:34:22.364Z,2.00
2018-08-25T02:36:50.588Z,2.10
2018-08-25T02:39:18.820Z,1.98
2018-08-25T02:41:47.052Z,1.80
2018-08-25T02:44:15.332Z,1.82
2018-08-25T02:46:43.562Z,1.92
2018-08-25T02:49:11.824Z,2.00
2018-08-25T02:51:40.092Z,2.00
2018-08-25T02:54:08.385Z,2.00
2018-08-25T02:56:36.626Z,2.15
2018-08-25T02:59:05.076Z,2.60
2018-08-25T03:01:33.312Z,2.20
2018-08-25T03:04:01.750Z,1.90
2018-08-25T03:06:29.975Z,1.80
2018-08-25T03:08:58.240Z,2.45
2018-08-25T03:11:26.448Z,2.10
2018-08-25T03:13:54.772Z,2.40
2018-08-25T03:16:22.912Z,2.20
2018-08-25T03:18:51.168Z,2.12
2018-08-25T03:21:19.384Z,2.10
2018-08-25T03:23:47.624Z,2.10
2018-08-25T03:26:15.845Z,2.20
2018-08-25T03:28:44.058Z,2.20
2018-08-25T03:31:12.878Z,2.50
2018-08-25T03:33:41.127Z,2.50
2018-08-25T03:36:09.387Z,2.20
2018-08-25T03:38:37.590Z,1.70
2018-08-25T03:41:06.559Z,2.12
2018-08-25T03:43:34.767Z,2.10
2018-08-25T03:46:03.009Z,2.13
2018-08-25T03:48:31.409Z,1.90
2018-08-25T03:50:59.676Z,2.22
2018-08-25T03:53:27.903Z,2.20
2018-08-25T03:55:56.145Z,2.10
2018-08-25T03:58:24.422Z,1.85
2018-08-25T04:00:53.979Z,1.80
2018-08-25T04:03:22.207Z,1.87
2018-08-25T04:05:50.455Z,2.00
2018-08-25T04:08:18.674Z,2.25
2018-08-25T04:10:46.904Z,2.20
2018-08-25T04:13:15.128Z,2.13
2018-08-25T04:15:43.424Z,2.20
2018-08-25T04:18:11.657Z,2.20
2018-08-25T04:20:39.883Z,2.08
2018-08-25T04:23:08.089Z,1.60
2018-08-25T04:25:36.364Z,1.75
2018-08-25T04:28:04.581Z,1.60
2018-08-25T04:30:32.833Z,1.60
2018-08-25T04:33:01.079Z,1.70
2018-08-25T04:35:29.307Z,2.10
2018-08-25T04:37:57.544Z,1.98
2018-08-25T04:40:25.772Z,1.85
2018-08-25T04:42:53.988Z,1.90
2018-08-25T04:45:22.221Z,2.20
2018-08-25T04:47:50.464Z,1.67
2018-08-25T04:50:18.760Z,1.80
2018-08-25T04:52:46.984Z,1.60
2018-08-25T04:55:15.233Z,1.70
2018-08-25T04:57:43.744Z,2.00
2018-08-25T05:00:12.001Z,1.70
2018-08-25T05:02:40.233Z,2.20
2018-08-25T05:05:08.517Z,1.80
2018-08-25T05:07:36.784Z,1.90
2018-08-25T05:10:05.040Z,1.70
2018-08-25T05:12:33.280Z,2.05
2018-08-25T05:15:01.520Z,1.90
2018-08-25T05:17:29.791Z,1.80
2018-08-25T05:19:58.076Z,1.77
2018-08-25T05:22:26.335Z,2.00
2018-08-25T05:24:54.569Z,1.93
2018-08-25T05:27:23.740Z,2.20
2018-08-25T05:29:55.073Z,2.20
2018-08-25T05:32:23.341Z,2.40
2018-08-25T05:34:51.809Z,2.10
2018-08-25T05:37:20.272Z,1.90
2018-08-25T05:39:48.500Z,2.00
2018-08-25T05:42:16.767Z,2.20
2018-08-25T05:44:44.972Z,2.20
2018-08-25T05:47:13.199Z,2.27
2018-08-25T05:49:41.425Z,2.10
2018-08-25T05:52:09.688Z,2.10
2018-08-25T05:54:37.885Z,2.40
2018-08-25T05:57:06.127Z,2.07
2018-08-25T05:59:34.357Z,2.50
2018-08-25T06:02:03.044Z,1.70
2018-08-25T06:04:31.480Z,2.00
2018-08-25T06:06:59.712Z,2.00
2018-08-25T06:09:27.920Z,1.60
2018-08-25T06:11:56.143Z,2.02
2018-08-25T06:14:24.347Z,2.10
2018-08-25T06:16:52.564Z,2.08
2018-08-25T06:19:20.824Z,1.90
2018-08-25T06:21:49.072Z,1.90
2018-08-25T06:24:17.276Z,2.20
2018-08-25T06:26:45.522Z,1.62
2018-08-25T06:29:13.768Z,1.90
2018-08-25T06:31:41.998Z,1.90
2018-08-25T06:34:10.239Z,2.20
2018-08-25T06:36:38.519Z,1.80
2018-08-25T06:39:08.051Z,2.10
2018-08-25T06:41:36.308Z,2.07
2018-08-25T06:44:04.525Z,2.00
2018-08-25T06:46:32.741Z,2.10
2018-08-25T06:49:01.028Z,2.00
2018-08-25T06:51:29.339Z,2.20
2018-08-25T06:53:57.727Z,2.60
2018-08-25T06:56:25.964Z,2.33
2018-08-25T06:58:54.164Z,2.03
2018-08-25T07:01:22.371Z,2.30
2018-08-25T07:03:50.600Z,2.47
2018-08-25T07:06:18.803Z,2.70
2018-08-25T07:08:47.037Z,2.20
2018-08-25T07:11:15.256Z,2.72
2018-08-25T07:13:44.384Z,2.30
2018-08-25T07:16:12.595Z,2.50
2018-08-25T07:18:40.837Z,2.20
2018-08-25T07:21:09.052Z,2.30
2018-08-25T07:23:37.280Z,2.07
2018-08-25T07:26:05.526Z,2.50
2018-08-25T07:28:33.745Z,2.37
2018-08-25T07:31:01.957Z,1.90
2018-08-25T07:33:30.222Z,2.20
2018-08-25T07:35:58.428Z,2.23
2018-08-25T07:38:26.698Z,2.27
2018-08-25T07:40:54.937Z,2.05
2018-08-25T07:43:23.175Z,2.20
2018-08-25T07:45:51.381Z,1.92
2018-08-25T07:48:19.624Z,2.20
2018-08-25T07:50:47.868Z,2.10
2018-08-25T07:53:16.093Z,1.90
2018-08-25T07:55:44.304Z,1.80
2018-08-25T07:58:12.555Z,1.75
2018-08-25T08:00:40.756Z,2.20
2018-08-25T08:03:09.064Z,1.80
2018-08-25T08:05:37.373Z,1.60
2018-08-25T08:08:05.589Z,2.20
2018-08-25T08:10:34.061Z,2.50
2018-08-25T08:13:02.303Z,1.98
2018-08-25T08:15:30.516Z,2.30
2018-08-25T08:17:58.896Z,2.73
2018-08-25T08:20:27.104Z,2.60
2018-08-25T08:22:55.337Z,3.00
2018-08-25T08:25:23.601Z,2.70
2018-08-25T08:27:51.831Z,2.47
2018-08-25T08:30:20.056Z,2.50
2018-08-25T08:32:48.389Z,2.00
2018-08-25T08:35:18.232Z,2.30
2018-08-25T08:37:46.488Z,2.40
2018-08-25T08:40:14.721Z,2.70
2018-08-25T08:42:43.012Z,2.70
2018-08-25T08:45:11.236Z,2.58
2018-08-25T08:47:39.627Z,2.40
2018-08-25T08:50:09.380Z,2.33
2018-08-25T08:52:37.655Z,1.72
2018-08-25T08:55:06.261Z,2.30
2018-08-25T08:57:34.468Z,2.20
2018-08-25T09:00:02.735Z,2.52
2018-08-25T09:02:30.980Z,2.40
2018-08-25T09:04:59.270Z,2.73
2018-08-25T09:07:27.477Z,3.00
2018-08-25T09:09:55.696Z,3.10
2018-08-25T09:12:23.934Z,3.20
2018-08-25T09:14:52.169Z,2.70
2018-08-25T09:17:20.424Z,2.70
2018-08-25T09:19:48.660Z,2.30
2018-08-25T09:22:16.929Z,2.77
2018-08-25T09:24:45.189Z,3.22
2018-08-25T09:27:13.701Z,2.90
2018-08-25T09:29:41.946Z,3.27
2018-08-25T09:32:10.220Z,3.25
2018-08-25T09:34:38.448Z,3.30
2018-08-25T09:37:06.676Z,3.13
2018-08-25T09:39:35.448Z,3.50
2018-08-25T09:42:04.157Z,3.40
2018-08-25T09:44:33.186Z,3.60
2018-08-25T09:47:02.128Z,3.27
2018-08-25T09:49:30.748Z,3.30
2018-08-25T09:51:59.448Z,2.83
2018-08-25T09:54:27.705Z,2.90
2018-08-25T09:56:55.953Z,2.85
2018-08-25T09:59:24.183Z,2.00
2018-08-25T10:01:58.188Z,1.43
2018-08-25T10:04:26.656Z,1.60
2018-08-25T10:06:55.140Z,1.40
2018-08-25T10:09:23.600Z,1.20
2018-08-25T10:11:51.905Z,1.20
2018-08-25T10:14:20.220Z,0.80
2018-08-25T10:16:48.613Z,0.85
2018-08-25T10:19:17.112Z,1.00
2018-08-25T10:21:45.408Z,0.90
2018-08-25T10:24:13.829Z,0.90
2018-08-25T10:26:42.036Z,1.00
2018-08-25T10:29:10.645Z,0.90
2018-08-25T10:31:38.848Z,1.00
2018-08-25T10:34:07.258Z,1.00
2018-08-25T10:36:35.788Z,1.07
2018-08-25T10:39:05.216Z,1.00
2018-08-25T10:41:33.535Z,0.90
2018-08-25T10:44:01.947Z,1.27
2018-08-25T10:46:30.401Z,1.40
2018-08-25T10:48:58.804Z,1.30
2018-08-25T10:51:27.832Z,1.20
2018-08-25T10:53:56.158Z,1.20
2018-08-25T10:56:24.725Z,1.00
2018-08-25T10:58:52.938Z,1.17
2018-08-25T11:01:21.197Z,0.82
2018-08-25T11:03:49.528Z,1.00
2018-08-25T11:06:17.764Z,0.90
2018-08-25T11:08:46.353Z,0.90
2018-08-25T11:11:15.513Z,1.20
2018-08-25T11:13:43.881Z,1.37
2018-08-25T11:16:12.176Z,1.00
2018-08-25T11:18:40.809Z,1.10
2018-08-25T11:21:09.270Z,1.10
2018-08-25T11:23:37.834Z,1.10
2018-08-25T11:26:06.375Z,1.00
2018-08-25T11:28:34.917Z,1.00
2018-08-25T11:31:04.417Z,0.90
2018-08-25T11:33:32.937Z,1.00
2018-08-25T11:36:01.220Z,0.90
2018-08-25T11:38:29.491Z,0.90
2018-08-25T11:40:58.181Z,0.80
2018-08-25T11:43:26.604Z,0.80
2018-08-25T11:45:54.902Z,0.70
2018-08-25T11:48:27.229Z,0.78
2018-08-25T11:50:55.992Z,0.70
2018-08-25T11:53:24.377Z,0.70
2018-08-25T11:55:52.900Z,0.90
2018-08-25T11:58:21.236Z,0.80
2018-08-25T12:00:49.557Z,0.80
2018-08-25T12:03:17.851Z,1.00
2018-08-25T12:05:46.915Z,0.80
2018-08-25T12:08:15.449Z,0.82
2018-08-25T12:10:43.749Z,0.90
2018-08-25T12:13:11.974Z,0.90
2018-08-25T12:15:40.271Z,0.90
2018-08-25T12:18:08.651Z,0.80
2018-08-25T12:20:37.167Z,0.90
2018-08-25T12:23:05.825Z,0.90
2018-08-25T12:25:34.077Z,0.80
2018-08-25T12:28:02.284Z,0.80
2018-08-25T12:30:30.793Z,1.10
2018-08-25T12:32:59.068Z,0.90
2018-08-25T12:35:27.351Z,0.90
2018-08-25T12:37:55.598Z,1.17
2018-08-25T12:40:24.116Z,1.25
2018-08-25T12:42:52.545Z,1.07
2018-08-25T12:45:20.800Z,0.80
2018-08-25T12:47:49.117Z,1.10
2018-08-25T12:50:17.437Z,0.82
2018-08-25T12:52:45.949Z,0.90
2018-08-25T12:55:14.388Z,0.80
2018-08-25T12:57:42.659Z,0.90
2018-08-25T13:00:11.794Z,0.93
2018-08-25T13:02:40.933Z,1.07
2018-08-25T13:05:09.208Z,0.90
2018-08-25T13:07:37.926Z,0.87
2018-08-25T13:10:06.358Z,0.80
2018-08-25T13:12:34.820Z,0.80
2018-08-25T13:15:04.061Z,0.80
2018-08-25T13:17:32.325Z,1.00
2018-08-25T13:20:00.589Z,0.97
2018-08-25T13:22:28.866Z,0.90
2018-08-25T13:24:57.276Z,0.80
2018-08-25T13:27:25.505Z,0.90
2018-08-25T13:29:53.843Z,0.90
2018-08-25T13:32:22.205Z,0.90
2018-08-25T13:34:51.357Z,0.90
2018-08-25T13:37:19.620Z,0.90
2018-08-25T13:39:47.954Z,1.10
2018-08-25T13:42:16.325Z,0.90
2018-08-25T13:44:44.582Z,0.90
2018-08-25T13:47:12.849Z,0.90
2018-08-25T13:49:41.088Z,0.70
2018-08-25T13:52:09.362Z,0.80
2018-08-25T13:54:37.561Z,0.80
2018-08-25T13:57:05.789Z,0.90
2018-08-25T13:59:34.006Z,0.85
2018-08-25T14:02:02.268Z,1.00
2018-08-25T14:04:30.509Z,0.90
2018-08-25T14:06:59.002Z,0.90
2018-08-25T14:09:27.222Z,0.77
2018-08-25T14:11:55.467Z,0.78
2018-08-25T14:14:23.688Z,0.90
2018-08-25T14:16:51.957Z,1.00
2018-08-25T14:19:20.200Z,1.10
2018-08-25T14:21:48.450Z,0.95
2018-08-25T14:24:16.680Z,1.00
2018-08-25T14:26:44.931Z,0.90
2018-08-25T14:29:13.396Z,0.90
2018-08-25T14:31:41.648Z,0.90
2018-08-25T14:34:09.868Z,0.90
2018-08-25T14:36:38.096Z,0.83
2018-08-25T14:39:07.941Z,0.70
2018-08-25T14:41:36.288Z,0.90
2018-08-25T14:44:05.293Z,1.10
2018-08-25T14:46:33.732Z,0.88
2018-08-25T14:49:02.007Z,0.90
2018-08-25T14:51:30.568Z,0.80
2018-08-25T14:53:58.840Z,0.70
2018-08-25T14:56:27.323Z,1.57
2018-08-25T14:58:55.564Z,1.80
2018-08-25T15:01:23.780Z,1.32
2018-08-25T15:03:52.020Z,0.90
2018-08-25T15:06:20.232Z,1.00
2018-08-25T15:08:48.521Z,0.83
2018-08-25T15:11:16.833Z,0.90
2018-08-25T15:13:45.055Z,1.00
2018-08-25T15:16:13.333Z,1.10
2018-08-25T15:18:41.629Z,0.90
2018-08-25T15:21:09.914Z,0.70
2018-08-25T15:23:38.172Z,1.10
2018-08-25T15:26:06.429Z,1.00
2018-08-25T15:28:34.673Z,1.30
2018-08-25T15:31:02.914Z,3.07
2018-08-25T15:33:31.141Z,2.53
2018-08-25T15:35:59.441Z,1.20
2018-08-25T15:38:27.672Z,1.80
2018-08-25T15:40:55.968Z,1.50
2018-08-25T15:43:24.211Z,1.50
2018-08-25T15:45:52.527Z,1.40
2018-08-25T15:48:20.772Z,1.23
2018-08-25T15:50:49.127Z,1.30
2018-08-25T15:53:17.407Z,1.40
2018-08-25T15:55:45.628Z,1.20
2018-08-25T15:58:13.857Z,1.32
2018-08-25T16:00:42.088Z,1.40
2018-08-25T16:03:10.321Z,1.57
2018-08-25T16:05:38.552Z,1.30
2018-08-25T16:08:06.799Z,1.40
2018-08-25T16:10:35.000Z,1.33
2018-08-25T16:13:03.225Z,1.10
2018-08-25T16:15:31.452Z,1.60
2018-08-25T16:17:59.695Z,1.12
2018-08-25T16:20:27.906Z,1.00
2018-08-25T16:22:56.165Z,1.30
2018-08-25T16:25:24.384Z,0.90
2018-08-25T16:27:52.641Z,1.05
2018-08-25T16:30:20.848Z,1.40
2018-08-25T16:32:49.112Z,2.10
2018-08-25T16:35:17.317Z,1.40
2018-08-25T16:37:45.519Z,1.40
2018-08-25T16:40:13.804Z,1.60
2018-08-25T16:42:42.008Z,1.50
2018-08-25T16:45:10.239Z,1.60
2018-08-25T16:47:38.448Z,1.17
2018-08-25T16:50:06.780Z,1.40
2018-08-25T16:52:34.997Z,1.30
2018-08-25T16:55:03.249Z,1.60
2018-08-25T16:57:31.733Z,1.50
2018-08-25T16:59:59.970Z,1.10
2018-08-25T17:02:28.212Z,1.70
2018-08-25T17:04:57.305Z,1.36
2018-08-25T17:07:25.503Z,1.20
2018-08-25T17:09:53.760Z,1.20
2018-08-25T17:12:21.996Z,1.70
2018-08-25T17:14:50.244Z,1.40
2018-08-25T17:17:18.464Z,1.90
2018-08-25T17:19:46.713Z,2.10
2018-08-25T17:22:15.048Z,1.40
2018-08-25T17:24:43.356Z,1.40
2018-08-25T17:27:11.591Z,1.10
2018-08-25T17:29:39.833Z,1.30
2018-08-25T17:32:08.061Z,1.12
2018-08-25T17:34:36.297Z,1.37
2018-08-25T17:37:04.544Z,1.10
2018-08-25T17:39:32.776Z,1.10
2018-08-25T17:42:01.018Z,1.10
2018-08-25T17:44:30.373Z,1.30
2018-08-25T17:46:58.601Z,1.20
2018-08-25T17:49:26.836Z,1.25
2018-08-25T17:51:55.164Z,1.37
2018-08-25T17:54:23.414Z,1.10
2018-08-25T17:56:51.678Z,1.00
2018-08-25T17:59:19.853Z,1.10
2018-08-25T18:01:48.403Z,1.00
2018-08-25T18:04:16.737Z,1.17
2018-08-25T18:06:46.102Z,1.00
2018-08-25T18:09:15.936Z,1.00
2018-08-25T18:11:45.697Z,0.90
2018-08-25T18:14:15.243Z,1.20
2018-08-25T18:16:45.676Z,1.00
2018-08-25T18:19:15.176Z,1.10
2018-08-25T18:21:44.570Z,1.10
2018-08-25T18:24:15.784Z,1.10
2018-08-25T18:26:47.534Z,1.00
2018-08-25T18:29:18.165Z,1.10
2018-08-25T18:31:47.770Z,1.10
2018-08-25T18:34:18.092Z,1.15
2018-08-25T18:36:49.371Z,0.90
2018-08-25T18:39:20.067Z,1.00
2018-08-25T18:41:50.188Z,1.10
2018-08-25T18:44:20.231Z,1.20
2018-08-25T18:46:50.230Z,1.20
2018-08-25T18:49:20.640Z,1.30
2018-08-25T18:51:50.534Z,1.10
2018-08-25T18:54:20.554Z,1.10
2018-08-25T18:56:50.719Z,1.30
2018-08-25T18:59:20.587Z,0.90
2018-08-25T19:01:51.223Z,1.10
2018-08-25T19:04:21.879Z,0.90
2018-08-25T19:06:53.996Z,1.50
2018-08-25T19:09:23.359Z,1.20
2018-08-25T19:11:53.667Z,1.30
2018-08-25T19:14:23.849Z,1.20
2018-08-25T19:16:53.759Z,1.10
2018-08-25T19:19:22.172Z,1.20
2018-08-25T19:21:50.424Z,1.00
2018-08-25T19:24:18.678Z,1.17
2018-08-25T19:26:46.904Z,1.20
2018-08-25T19:29:15.117Z,1.20
2018-08-25T19:31:43.348Z,1.00
2018-08-25T19:34:11.568Z,1.10
2018-08-25T19:36:39.801Z,1.37
2018-08-25T19:39:09.425Z,1.30
2018-08-25T19:41:37.732Z,1.27
2018-08-25T19:44:05.993Z,1.10
2018-08-25T19:46:34.274Z,1.10
2018-08-25T19:49:02.508Z,1.00
2018-08-25T19:51:30.765Z,1.20
2018-08-25T19:54:00.096Z,1.10
2018-08-25T19:56:28.380Z,1.10
2018-08-25T19:58:56.605Z,1.00
2018-08-25T20:01:25.036Z,1.20
2018-08-25T20:03:53.285Z,0.90
2018-08-25T20:06:21.578Z,1.00
2018-08-25T20:08:49.798Z,0.90
2018-08-25T20:11:18.041Z,1.00
2018-08-25T20:13:46.404Z,1.10
2018-08-25T20:16:14.552Z,0.80
2018-08-25T20:18:42.760Z,0.72
2018-08-25T20:21:10.984Z,0.90
2018-08-25T20:23:39.212Z,1.10
2018-08-25T20:26:07.446Z,0.90
2018-08-25T20:28:35.672Z,1.10
2018-08-25T20:31:03.952Z,1.20
2018-08-25T20:33:32.140Z,1.20
2018-08-25T20:36:00.453Z,0.95
2018-08-25T20:38:28.761Z,1.30
2018-08-25T20:40:57.245Z,1.20
2018-08-25T20:43:25.484Z,1.20
2018-08-25T20:45:53.860Z,1.20
2018-08-25T20:48:22.044Z,1.42
2018-08-25T20:50:50.361Z,1.12
2018-08-25T20:53:18.652Z,1.15
2018-08-25T20:55:47.009Z,1.10
2018-08-25T20:58:15.273Z,1.27
2018-08-25T21:00:43.554Z,1.10
2018-08-25T21:03:11.762Z,1.20
2018-08-25T21:05:40.051Z,1.40
2018-08-25T21:08:08.308Z,1.20
2018-08-25T21:10:36.521Z,1.00
2018-08-25T21:13:04.757Z,1.10
2018-08-25T21:15:32.965Z,1.10
2018-08-25T21:18:01.225Z,1.00
2018-08-25T21:20:29.440Z,0.90
2018-08-25T21:22:57.761Z,1.20
2018-08-25T21:25:25.914Z,1.20
2018-08-25T21:27:54.150Z,1.30
2018-08-25T21:30:23.083Z,1.12
2018-08-25T21:32:51.341Z,0.90
2018-08-25T21:35:19.713Z,1.03
2018-08-25T21:37:47.951Z,1.02
2018-08-25T21:40:16.188Z,1.17
2018-08-25T21:42:44.523Z,1.30
2018-08-25T21:45:12.764Z,1.02
2018-08-25T21:47:41.049Z,1.30
2018-08-25T21:50:09.309Z,1.20
2018-08-25T21:52:37.566Z,1.10
2018-08-25T21:55:05.798Z,1.30
2018-08-25T21:57:34.055Z,1.00
2018-08-25T22:00:02.260Z,1.12
2018-08-25T22:02:30.573Z,1.10
2018-08-25T22:04:58.797Z,1.10
2018-08-25T22:07:27.030Z,1.20
2018-08-25T22:09:55.245Z,0.90
2018-08-25T22:12:23.465Z,1.20
2018-08-25T22:14:51.728Z,1.30
2018-08-25T22:17:19.968Z,1.22
2018-08-25T22:19:48.172Z,1.00
2018-08-25T22:22:16.404Z,1.30
2018-08-25T22:24:44.641Z,1.10
2018-08-25T22:27:12.884Z,1.10
2018-08-25T22:29:41.117Z,1.00
2018-08-25T22:32:09.359Z,1.30
2018-08-25T22:34:37.570Z,1.00
2018-08-25T22:37:05.812Z,1.00
2018-08-25T22:39:34.044Z,1.42
2018-08-25T22:42:02.285Z,1.20
2018-08-25T22:44:30.500Z,1.20
2018-08-25T22:46:58.739Z,0.90
2018-08-25T22:49:26.936Z,1.00
2018-08-25T22:51:55.213Z,1.20
2018-08-25T22:54:23.416Z,1.32
2018-08-25T22:56:51.640Z,1.30
2018-08-25T22:59:19.840Z,1.30
2018-08-25T23:01:48.089Z,1.20
2018-08-25T23:04:16.321Z,1.40
2018-08-25T23:06:44.528Z,1.02
2018-08-25T23:09:12.757Z,1.10
2018-08-25T23:11:41.107Z,1.30
2018-08-25T23:14:09.324Z,1.10
2018-08-25T23:16:37.535Z,0.90
2018-08-25T23:19:06.004Z,1.00
2018-08-25T23:21:34.211Z,1.00
2018-08-25T23:24:02.428Z,1.20
2018-08-25T23:26:30.662Z,1.40
2018-08-25T23:28:58.900Z,1.25
2018-08-25T23:31:27.171Z,1.47
2018-08-25T23:33:55.452Z,1.20
2018-08-25T23:36:23.668Z,1.17
2018-08-25T23:38:51.926Z,1.00
2018-08-25T23:41:20.121Z,1.20
2018-08-25T23:43:48.343Z,1.10
2018-08-25T23:46:16.549Z,1.20
2018-08-25T23:48:44.756Z,1.30
2018-08-25T23:51:13.000Z,1.20
2018-08-25T23:53:41.212Z,1.20
2018-08-25T23:56:09.453Z,1.20
2018-08-25T23:58:37.676Z,1.10
